createdAt,value
2022-08-04T00:01:22.658Z,21.76
2022-08-04T00:07:53.531Z,21.48
2022-08-04T00:14:15.024Z,21.26
2022-08-04T00:20:21.300Z,20.99
2022-08-04T00:26:23.756Z,20.93
2022-08-04T00:32:33.670Z,20.79
2022-08-04T00:38:37.261Z,20.89
2022-08-04T00:45:02.163Z,20.59
2022-08-04T00:51:25.784Z,20.48
2022-08-04T00:58:05.683Z,20.37
2022-08-04T01:05:02.385Z,20.35
2022-08-04T01:11:26.223Z,20.30
2022-08-04T01:18:08.070Z,20.26
2022-08-04T01:24:34.556Z,20.18
2022-08-04T01:30:40.620Z,20.14
2022-08-04T01:36:52.461Z,20.11
2022-08-04T01:42:55.505Z,20.05
2022-08-04T01:48:58.504Z,19.90
2022-08-04T01:55:04.141Z,19.93
2022-08-04T02:01:09.486Z,19.61
2022-08-04T02:07:39.376Z,19.41
2022-08-04T02:14:00.429Z,19.31
2022-08-04T02:20:16.122Z,19.20
2022-08-04T02:26:23.168Z,19.12
2022-08-04T02:32:33.408Z,19.15
2022-08-04T02:38:51.165Z,19.16
2022-08-04T02:44:57.040Z,19.19
2022-08-04T02:51:01.130Z,19.27
2022-08-04T02:57:08.587Z,19.18
2022-08-04T03:03:26.748Z,19.29
2022-08-04T03:09:55.162Z,19.20
2022-08-04T03:16:54.511Z,18.95
2022-08-04T03:23:38.385Z,18.75
2022-08-04T03:30:34.151Z,18.67
2022-08-04T03:37:32.712Z,18.47
2022-08-04T03:44:22.207Z,18.35
2022-08-04T03:50:27.022Z,18.33
2022-08-04T03:56:47.321Z,18.30
2022-08-04T04:03:11.184Z,18.34
2022-08-04T04:10:06.142Z,18.36
2022-08-04T04:16:42.742Z,18.25
2022-08-04T04:23:37.708Z,18.39
2022-08-04T04:30:25.388Z,18.39
2022-08-04T04:36:36.529Z,18.57
2022-08-04T04:43:12.839Z,18.55
2022-08-04T04:49:54.459Z,18.87
2022-08-04T04:56:20.068Z,19.61
2022-08-04T05:02:37.052Z,19.76
2022-08-04T05:09:17.524Z,19.83
2022-08-04T05:15:25.513Z,20.12
2022-08-04T05:21:48.661Z,20.11
2022-08-04T05:28:06.684Z,19.93
2022-08-04T05:34:12.736Z,20.38
2022-08-04T05:40:17.579Z,20.24
2022-08-04T05:46:20.342Z,20.75
2022-08-04T05:52:23.803Z,21.51
2022-08-04T05:58:27.064Z,21.88
2022-08-04T06:04:38.221Z,22.35
2022-08-04T06:10:42.728Z,23.25
2022-08-04T06:16:50.788Z,23.57
2022-08-04T06:22:58.928Z,24.32
2022-08-04T06:29:03.225Z,24.71
2022-08-04T06:35:08.050Z,25.36
2022-08-04T06:41:10.186Z,25.62
2022-08-04T06:47:18.251Z,26.01
2022-08-04T06:53:20.580Z,26.37
2022-08-04T06:59:23.098Z,26.95
2022-08-04T07:05:25.784Z,27.54
2022-08-04T07:11:28.547Z,28.04
2022-08-04T07:17:42.435Z,28.60
2022-08-04T07:23:45.952Z,29.07
2022-08-04T07:29:48.637Z,29.56
2022-08-04T07:36:04.907Z,30.04
2022-08-04T07:42:13.601Z,30.81
2022-08-04T07:48:18.691Z,31.15
2022-08-04T07:54:22.451Z,31.79
2022-08-04T08:00:24.558Z,32.17
2022-08-04T08:06:32.785Z,32.57
2022-08-04T08:12:50.766Z,32.73
2022-08-04T08:18:55.065Z,33.09
2022-08-04T08:24:57.153Z,33.72
2022-08-04T08:31:00.043Z,34.36
2022-08-04T08:37:12.895Z,34.59
2022-08-04T08:44:04.638Z,34.89
2022-08-04T08:50:22.040Z,34.94
2022-08-04T08:56:32.599Z,35.19
2022-08-04T09:03:33.345Z,35.25
2022-08-04T09:09:40.786Z,35.81
2022-08-04T09:15:59.672Z,36.52
2022-08-04T09:22:30.959Z,37.02
2022-08-04T09:28:54.165Z,37.32
2022-08-04T09:35:37.375Z,37.04
2022-08-04T09:42:11.278Z,37.62
2022-08-04T09:48:58.943Z,38.45
2022-08-04T09:55:18.733Z,38.35
2022-08-04T10:01:24.881Z,38.60
2022-08-04T10:08:22.833Z,38.40
2022-08-04T10:14:41.369Z,39.07
2022-08-04T10:21:15.393Z,39.63
2022-08-04T10:27:34.927Z,40.01
2022-08-04T10:34:12.801Z,40.13
2022-08-04T10:40:45.587Z,40.12
2022-08-04T10:46:59.702Z,40.71
2022-08-04T10:53:12.232Z,40.28
2022-08-04T10:59:26.349Z,39.93
2022-08-04T11:05:46.533Z,40.57
2022-08-04T11:12:15.529Z,41.94
2022-08-04T11:18:58.156Z,42.68
2022-08-04T11:25:21.027Z,41.76
2022-08-04T11:31:36.238Z,38.91
2022-08-04T11:37:56.481Z,37.60
2022-08-04T11:44:04.264Z,38.40
2022-08-04T11:50:32.516Z,38.83
2022-08-04T11:56:36.722Z,40.29
2022-08-04T12:03:22.539Z,41.15
2022-08-04T12:10:03.202Z,40.96
2022-08-04T12:17:08.705Z,41.77
2022-08-04T12:23:26.962Z,40.06
2022-08-04T12:29:34.575Z,39.33
2022-08-04T12:36:11.033Z,39.44
2022-08-04T12:42:32.503Z,40.21
2022-08-04T12:48:38.556Z,40.15
2022-08-04T12:54:43.674Z,40.33
2022-08-04T13:00:56.924Z,40.43
2022-08-04T13:07:13.799Z,40.11
2022-08-04T13:13:24.367Z,41.08
2022-08-04T13:19:27.339Z,42.91
2022-08-04T13:26:44.490Z,45.99
2022-08-04T13:31:55.760Z,44.50
2022-08-04T13:37:59.498Z,44.22
2022-08-04T13:44:18.507Z,43.58
2022-08-04T13:50:27.560Z,41.54
2022-08-04T13:56:40.166Z,42.36
2022-08-04T14:03:01.198Z,43.81
2022-08-04T14:09:17.764Z,42.94
2022-08-04T14:15:54.798Z,43.94
2022-08-04T14:22:05.919Z,42.89
2022-08-04T14:28:08.130Z,43.26
2022-08-04T14:34:18.807Z,43.68
2022-08-04T14:40:31.600Z,43.66
2022-08-04T14:46:36.412Z,40.98
2022-08-04T14:52:39.654Z,39.11
2022-08-04T14:58:41.650Z,37.92
2022-08-04T15:04:47.530Z,37.47
2022-08-04T15:10:49.674Z,37.00
2022-08-04T15:16:54.278Z,37.23
2022-08-04T15:22:56.831Z,37.60
2022-08-04T15:29:16.494Z,37.78
2022-08-04T15:35:30.895Z,40.53
2022-08-04T15:41:56.819Z,38.09
2022-08-04T15:48:05.353Z,37.33
2022-08-04T15:54:27.350Z,36.90
2022-08-04T16:00:50.914Z,36.97
2022-08-04T16:07:05.498Z,36.67
2022-08-04T16:13:14.662Z,36.64
2022-08-04T16:20:01.655Z,36.32
2022-08-04T16:26:03.905Z,36.36
2022-08-04T16:32:06.254Z,36.23
2022-08-04T16:38:15.241Z,36.25
2022-08-04T16:44:52.879Z,36.78
2022-08-04T16:51:13.000Z,37.65
2022-08-04T16:57:16.185Z,36.91
2022-08-04T17:03:18.436Z,36.17
2022-08-04T17:09:23.359Z,35.54
2022-08-04T17:15:28.087Z,35.05
2022-08-04T17:21:34.128Z,34.88
2022-08-04T17:28:20.025Z,34.49
2022-08-04T17:34:01.997Z,34.16
2022-08-04T17:40:18.480Z,33.31
2022-08-04T17:46:30.165Z,32.69
2022-08-04T17:59:56.969Z,31.73
2022-08-04T18:05:54.067Z,31.19
2022-08-04T18:12:23.137Z,31.26
2022-08-04T18:18:25.618Z,30.94
2022-08-04T18:24:35.566Z,30.26
2022-08-04T18:30:55.631Z,30.60
2022-08-04T18:36:59.136Z,30.28
2022-08-04T18:43:01.321Z,30.06
2022-08-04T18:49:03.478Z,30.05
2022-08-04T18:55:07.405Z,29.54
2022-08-04T19:01:13.634Z,29.26
2022-08-04T19:07:29.713Z,29.29
2022-08-04T19:19:54.668Z,28.93
2022-08-04T19:26:06.832Z,28.39
2022-08-04T19:38:38.321Z,27.99
2022-08-04T19:44:43.788Z,27.63
2022-08-04T19:50:47.215Z,27.36
2022-08-04T19:56:50.277Z,27.15
2022-08-04T20:02:52.500Z,26.93
2022-08-04T20:08:55.257Z,26.94
2022-08-04T20:14:59.929Z,26.86
2022-08-04T20:21:01.900Z,26.65
2022-08-04T20:27:07.688Z,26.56
2022-08-04T20:33:13.870Z,26.36
2022-08-04T20:39:16.062Z,26.26
2022-08-04T20:45:18.642Z,26.08
2022-08-04T20:51:31.938Z,26.04
2022-08-04T21:10:39.848Z,26.35
2022-08-04T21:16:53.940Z,26.26
2022-08-04T21:22:59.451Z,26.10
2022-08-04T21:29:04.762Z,26.00
2022-08-04T21:35:10.465Z,25.99
2022-08-04T21:41:24.145Z,26.06
2022-08-04T21:47:45.916Z,25.74
2022-08-04T21:53:53.779Z,25.73
2022-08-04T21:59:57.098Z,25.64
2022-08-04T22:06:02.142Z,25.39
2022-08-04T22:12:04.602Z,25.35
2022-08-04T22:18:06.596Z,25.33
2022-08-04T22:24:08.858Z,25.40
2022-08-04T22:30:17.753Z,25.51
2022-08-04T22:36:20.893Z,25.32
2022-08-04T22:42:26.965Z,25.44
2022-08-04T22:48:29.048Z,25.22
2022-08-04T22:54:34.181Z,25.23
2022-08-04T23:00:36.388Z,25.32
2022-08-04T23:06:42.125Z,25.40
2022-08-04T23:12:47.417Z,25.12
2022-08-04T23:18:51.831Z,24.66
2022-08-04T23:24:53.904Z,24.79
2022-08-04T23:30:56.461Z,24.59
2022-08-04T23:36:59.452Z,24.49
2022-08-04T23:43:16.860Z,23.69
2022-08-04T23:49:19.776Z,23.21
2022-08-04T23:55:21.859Z,23.04
